Terminal Aerodrome Forecast
Issued by NWS Melbourne, FL

Home | Current Version | Previous Version | Text Only | Print | Product List | Glossary On
Versions: 1 2 3 4 5 6 7 8 9 10 11 12 13 14
856
FTUS42 KMLB 212359
TAFVRB
TAF
KVRB 212359Z 2200/2224 21005KT P6SM BKN250
     FM221300 19015G23KT P6SM SCT025 BKN250
     FM221700 20022G33KT P6SM SCT040 BKN150=

USA.gov is the U.S. government's official web portal to all federal, state and local government web resources and services.